Time;durP1;ratioP1;P1;durP2;ratioP2;P2;SDS_P1;SDS_P2;PMS_P1;PMS_P2;Temp;Humidity;BMP_temperature;BMP_pressure;BME280_temperature;BME280_humidity;BME280_pressure;Samples;Min_cycle;Max_cycle;Signal;HPM_P1;HPM_P2
2022/07/13 00:01:46;;;;;;;2.08;1.50;;;20.10;99.90;;;;;;5014901;28;20050;-74
2022/07/13 00:04:11;;;;;;;2.72;1.50;;;20.10;99.90;;;;;;5015325;28;20499;-74
2022/07/13 00:06:37;;;;;;;2.63;1.73;;;20.10;99.90;;;;;;4998569;28;20041;-74
2022/07/13 00:09:03;;;;;;;1.45;1.30;;;20.20;99.90;;;;;;4998684;28;20037;-75
2022/07/13 00:11:29;;;;;;;3.25;1.42;;;20.10;99.90;;;;;;4998606;28;20048;-74
2022/07/13 00:13:55;;;;;;;2.17;1.60;;;20.20;99.90;;;;;;5014735;28;20057;-74
2022/07/13 00:16:20;;;;;;;2.17;1.73;;;20.00;99.90;;;;;;4998504;28;20576;-74
2022/07/13 00:18:46;;;;;;;4.35;1.48;;;20.00;99.90;;;;;;4998844;28;20463;-74
2022/07/13 00:21:12;;;;;;;2.15;1.50;;;20.10;99.90;;;;;;5018764;28;20041;-74
2022/07/13 00:23:37;;;;;;;2.65;1.80;;;20.00;99.90;;;;;;5018600;28;20045;-74
2022/07/13 00:26:03;;;;;;;2.15;1.63;;;20.10;99.90;;;;;;5002216;28;20489;-74
2022/07/13 00:28:29;;;;;;;1.75;1.38;;;20.00;99.90;;;;;;4986279;28;20047;-74
2022/07/13 00:30:54;;;;;;;1.60;1.30;;;19.90;99.90;;;;;;5002208;28;20041;-74
2022/07/13 00:33:20;;;;;;;2.17;1.60;;;19.90;99.90;;;;;;4985857;28;20041;-75
2022/07/13 00:35:46;;;;;;;3.20;1.60;;;19.90;99.90;;;;;;5002070;28;20412;-74
2022/07/13 00:38:11;;;;;;;2.22;1.70;;;19.90;99.90;;;;;;5002065;28;20118;-74
2022/07/13 00:40:37;;;;;;;6.00;1.90;;;19.90;99.90;;;;;;5018302;28;20091;-74
2022/07/13 00:43:03;;;;;;;3.97;1.92;;;19.90;99.90;;;;;;4985645;28;20048;-74
2022/07/13 00:45:29;;;;;;;2.63;1.70;;;19.90;99.90;;;;;;5018202;28;20392;-74
2022/07/13 00:47:55;;;;;;;1.70;1.35;;;19.90;99.90;;;;;;5001846;28;20040;-75
2022/07/13 00:50:21;;;;;;;2.55;1.85;;;19.90;99.90;;;;;;5018327;28;20428;-74
2022/07/13 00:52:47;;;;;;;1.85;1.40;;;19.90;99.90;;;;;;5018061;28;20048;-74
2022/07/13 00:55:13;;;;;;;1.58;1.48;;;19.90;99.90;;;;;;5018044;28;20452;-74
2022/07/13 00:57:39;;;;;;;2.55;1.63;;;19.90;99.90;;;;;;5017952;28;20405;-75
2022/07/13 01:00:11;;;;;;;2.45;1.52;;;19.90;99.90;;;;;;5017885;28;20042;-74
2022/07/13 01:02:38;;;;;;;2.40;1.48;;;19.80;99.90;;;;;;5017854;28;20049;-74
2022/07/13 01:05:04;;;;;;;2.28;1.55;;;19.80;99.90;;;;;;5017811;28;20057;-74
2022/07/13 01:07:32;;;;;;;2.45;1.85;;;19.80;99.90;;;;;;5017703;28;20064;-74
2022/07/13 01:09:58;;;;;;;2.55;1.95;;;19.90;99.90;;;;;;5017728;28;20039;-74
2022/07/13 01:12:26;;;;;;;2.63;2.00;;;19.90;99.90;;;;;;5017709;28;20045;-74
2022/07/13 01:14:52;;;;;;;2.63;1.92;;;19.80;99.90;;;;;;5001552;28;20460;-74
2022/07/13 01:17:18;;;;;;;3.30;2.35;;;19.80;99.90;;;;;;5001499;28;20049;-74
2022/07/13 01:19:45;;;;;;;2.42;1.77;;;19.80;99.90;;;;;;5017790;28;20137;-74
2022/07/13 01:22:14;;;;;;;3.05;2.13;;;19.80;99.90;;;;;;5017456;28;20132;-74
2022/07/13 01:24:40;;;;;;;3.47;2.28;;;19.80;99.90;;;;;;5017704;28;20045;-74
2022/07/13 01:27:06;;;;;;;3.28;2.33;;;19.80;99.90;;;;;;5017323;28;20045;-74
2022/07/13 01:29:31;;;;;;;4.13;2.30;;;19.80;99.90;;;;;;5017377;28;20041;-74
2022/07/13 01:32:00;;;;;;;3.40;2.28;;;19.80;99.90;;;;;;5016167;28;20042;-74
2022/07/13 01:34:25;;;;;;;3.13;2.50;;;19.80;99.90;;;;;;5000989;28;20125;-75
2022/07/13 01:36:51;;;;;;;3.65;2.47;;;19.80;99.90;;;;;;5000893;28;20521;-74
2022/07/13 01:39:17;;;;;;;4.40;2.85;;;19.90;99.90;;;;;;5017530;28;20049;-74
2022/07/13 01:41:43;;;;;;;3.25;2.35;;;19.90;99.90;;;;;;5001193;28;20112;-74
2022/07/13 01:44:08;;;;;;;3.60;2.42;;;19.90;99.90;;;;;;5001111;28;20080;-75
2022/07/13 01:46:36;;;;;;;4.60;2.60;;;19.90;99.90;;;;;;4984887;28;20037;-74
2022/07/13 01:49:01;;;;;;;4.13;2.88;;;19.90;99.90;;;;;;5001277;28;20045;-74
2022/07/13 01:51:27;;;;;;;4.68;2.80;;;19.90;99.90;;;;;;4984419;28;20037;-74
2022/07/13 01:53:54;;;;;;;4.82;2.70;;;19.90;99.90;;;;;;5016867;28;20132;-74
2022/07/13 01:56:20;;;;;;;3.92;2.40;;;20.00;99.90;;;;;;5000643;28;20049;-74
2022/07/13 01:58:46;;;;;;;3.40;2.63;;;20.00;99.90;;;;;;5016777;28;20048;-74
2022/07/13 02:01:11;;;;;;;4.18;2.78;;;20.00;99.90;;;;;;5000452;28;20045;-74
2022/07/13 02:03:37;;;;;;;4.30;2.58;;;19.90;99.90;;;;;;5016712;28;20403;-74
2022/07/13 02:06:05;;;;;;;3.97;2.55;;;20.00;99.90;;;;;;5016635;28;20401;-74
2022/07/13 02:08:30;;;;;;;3.42;2.50;;;20.00;99.90;;;;;;5016653;28;20041;-74
2022/07/13 02:10:56;;;;;;;4.38;3.20;;;20.00;99.90;;;;;;5016650;28;20048;-74
2022/07/13 02:13:22;;;;;;;4.45;3.15;;;20.00;99.90;;;;;;5000216;28;20543;-74
2022/07/13 02:15:48;;;;;;;3.40;2.47;;;20.00;99.90;;;;;;5016535;28;20431;-74
2022/07/13 02:18:14;;;;;;;3.63;2.47;;;20.00;99.90;;;;;;5000062;28;20077;-74
2022/07/13 02:20:40;;;;;;;3.90;2.13;;;20.00;99.90;;;;;;5000327;28;20084;-74
2022/07/13 02:23:05;;;;;;;4.43;2.60;;;20.00;99.90;;;;;;5016253;28;20041;-74
2022/07/13 02:25:35;;;;;;;2.88;2.10;;;19.90;99.90;;;;;;5000053;28;20048;-74
2022/07/13 02:28:01;;;;;;;3.70;2.78;;;20.00;99.90;;;;;;5016284;28;20038;-74
2022/07/13 02:30:27;;;;;;;4.45;2.67;;;20.00;99.90;;;;;;5016243;28;20100;-74
2022/07/13 02:32:53;;;;;;;3.90;2.75;;;20.00;99.90;;;;;;5016250;28;20084;-74
2022/07/13 02:35:18;;;;;;;4.72;2.97;;;20.00;99.90;;;;;;5016481;28;20055;-74
2022/07/13 02:37:44;;;;;;;3.70;2.20;;;20.00;99.90;;;;;;4999850;28;20048;-74
2022/07/13 02:40:12;;;;;;;5.00;2.72;;;20.00;99.90;;;;;;5000056;28;20405;-74
2022/07/13 02:42:38;;;;;;;4.28;2.75;;;20.00;99.90;;;;;;5015745;28;20464;-74
2022/07/13 02:45:05;;;;;;;3.13;2.22;;;20.00;99.90;;;;;;5016013;28;20133;-75
2022/07/13 02:47:31;;;;;;;4.65;2.58;;;20.00;99.90;;;;;;5015963;28;20071;-74
2022/07/13 02:49:57;;;;;;;4.90;2.67;;;20.20;99.90;;;;;;5016230;28;20116;-74
2022/07/13 02:52:23;;;;;;;3.75;2.33;;;20.10;99.90;;;;;;5015880;28;20129;-74
2022/07/13 02:54:48;;;;;;;3.45;2.70;;;20.10;99.90;;;;;;5015834;28;20515;-74
2022/07/13 02:57:14;;;;;;;3.75;2.30;;;20.10;99.90;;;;;;4999365;28;20107;-74
2022/07/13 02:59:40;;;;;;;4.15;2.72;;;20.10;99.90;;;;;;5015942;28;20041;-74
2022/07/13 03:02:06;;;;;;;4.07;2.63;;;20.10;99.90;;;;;;5015923;28;20048;-74
2022/07/13 03:04:33;;;;;;;3.20;2.47;;;20.10;99.90;;;;;;5015949;28;20044;-75
2022/07/13 03:06:59;;;;;;;5.78;2.60;;;20.00;99.90;;;;;;5015605;28;20080;-74
2022/07/13 03:09:24;;;;;;;3.08;2.03;;;20.00;99.90;;;;;;5015776;28;20077;-74
2022/07/13 03:11:50;;;;;;;5.40;2.67;;;20.00;99.90;;;;;;5015870;28;20102;-74
2022/07/13 03:14:16;;;;;;;3.25;1.83;;;20.00;99.90;;;;;;5015324;28;20050;-74
2022/07/13 03:16:42;;;;;;;3.47;2.83;;;20.00;99.90;;;;;;4983029;28;20046;-74
2022/07/13 03:19:09;;;;;;;3.33;2.70;;;20.00;99.90;;;;;;4982909;28;20124;-74
2022/07/13 03:21:35;;;;;;;2.85;2.30;;;20.00;99.90;;;;;;5015361;28;20033;-74
2022/07/13 03:24:01;;;;;;;3.22;2.00;;;20.00;99.90;;;;;;5015275;28;20048;-74
2022/07/13 03:26:27;;;;;;;4.18;2.42;;;20.00;99.90;;;;;;5015312;28;20037;-74
2022/07/13 03:28:52;;;;;;;6.03;3.05;;;20.00;99.90;;;;;;4982988;28;20076;-74
2022/07/13 03:31:18;;;;;;;3.13;2.28;;;20.00;99.90;;;;;;5015205;28;20037;-74
2022/07/13 03:33:44;;;;;;;3.55;2.13;;;20.00;99.90;;;;;;5015226;28;20128;-74
2022/07/13 03:36:10;;;;;;;5.72;2.95;;;20.00;99.90;;;;;;5015513;28;20045;-74
2022/07/13 03:38:36;;;;;;;3.75;2.58;;;20.00;99.90;;;;;;5015468;28;20051;-74
2022/07/13 03:41:03;;;;;;;3.42;2.15;;;20.00;99.90;;;;;;5015139;28;20046;-74
2022/07/13 03:43:29;;;;;;;3.85;2.65;;;20.00;99.90;;;;;;4998743;28;20049;-74
2022/07/13 03:45:54;;;;;;;4.55;2.30;;;20.00;99.90;;;;;;4982749;28;20045;-74
2022/07/13 03:48:20;;;;;;;5.10;2.63;;;20.00;99.90;;;;;;5015158;28;20038;-74
2022/07/13 03:50:47;;;;;;;3.13;2.25;;;20.10;99.90;;;;;;5015067;28;20503;-75
2022/07/13 03:53:14;;;;;;;3.67;2.58;;;20.00;99.90;;;;;;5015066;28;20118;-74
2022/07/13 03:55:41;;;;;;;4.18;2.40;;;20.00;99.90;;;;;;5001860;28;20120;-74
2022/07/13 03:58:07;;;;;;;4.65;2.70;;;20.00;99.90;;;;;;5019297;28;20435;-75
2022/07/13 04:00:33;;;;;;;4.68;2.97;;;20.00;99.90;;;;;;5019286;28;20080;-75
2022/07/13 04:02:59;;;;;;;4.13;2.38;;;20.00;99.90;;;;;;5002640;28;20088;-74
2022/07/13 04:05:25;;;;;;;4.03;2.55;;;20.00;99.90;;;;;;5019165;28;20038;-73
2022/07/13 04:07:51;;;;;;;6.20;2.75;;;20.00;99.90;;;;;;5002631;28;20042;-72
2022/07/13 04:10:20;;;;;;;7.05;2.40;;;20.00;99.90;;;;;;5002526;28;20114;-74
2022/07/13 04:12:46;;;;;;;3.25;2.22;;;19.90;99.90;;;;;;5018944;28;20408;-74
2022/07/13 04:15:12;;;;;;;4.35;2.75;;;20.00;99.90;;;;;;5019041;28;20457;-74
2022/07/13 04:17:42;;;;;;;4.22;2.45;;;20.00;99.90;;;;;;5019065;28;20162;-74
2022/07/13 04:20:11;;;;;;;3.25;2.38;;;20.00;99.90;;;;;;5019180;28;20452;-74
2022/07/13 04:22:36;;;;;;;4.47;2.33;;;20.00;99.90;;;;;;5018685;28;20045;-74
2022/07/13 04:25:03;;;;;;;3.20;2.03;;;20.00;99.90;;;;;;5002310;28;20041;-74
2022/07/13 04:27:29;;;;;;;3.92;2.47;;;20.00;99.90;;;;;;5018568;28;20087;-74
2022/07/13 04:29:55;;;;;;;4.10;2.30;;;19.90;99.90;;;;;;5018524;28;20124;-74
2022/07/13 04:32:21;;;;;;;3.78;2.30;;;20.00;99.90;;;;;;5002129;28;20132;-74
2022/07/13 04:34:47;;;;;;;3.38;2.28;;;20.00;99.90;;;;;;5018712;28;20052;-75
2022/07/13 04:37:13;;;;;;;3.60;2.28;;;20.00;99.90;;;;;;5002155;28;20087;-74
2022/07/13 04:39:42;;;;;;;4.28;2.35;;;20.00;99.90;;;;;;5036091;28;20044;-74
2022/07/13 04:42:08;;;;;;;3.83;2.40;;;20.10;99.90;;;;;;5001854;28;20087;-74
2022/07/13 04:44:34;;;;;;;3.75;2.22;;;20.10;99.90;;;;;;5018553;28;20546;-74
2022/07/13 04:46:59;;;;;;;4.47;2.38;;;20.00;99.90;;;;;;5018413;28;20124;-74
2022/07/13 04:49:25;;;;;;;4.03;2.38;;;20.00;99.90;;;;;;5018160;28;20033;-74
2022/07/13 04:51:51;;;;;;;3.50;2.03;;;20.10;99.90;;;;;;5018109;28;20048;-74
2022/07/13 04:54:21;;;;;;;2.60;1.95;;;20.10;99.90;;;;;;5018316;28;20539;-75
2022/07/13 04:56:48;;;;;;;3.40;2.05;;;20.10;99.90;;;;;;5002167;28;20037;-75
2022/07/13 04:59:14;;;;;;;2.75;1.80;;;20.10;99.90;;;;;;5017953;28;20052;-75
2022/07/13 05:01:41;;;;;;;3.13;2.22;;;20.10;99.90;;;;;;5001627;28;20049;-75
2022/07/13 05:04:07;;;;;;;4.22;2.40;;;20.10;99.90;;;;;;5017758;28;20412;-75
2022/07/13 05:06:33;;;;;;;3.38;2.10;;;20.10;99.90;;;;;;5001397;28;20038;-75
2022/07/13 05:08:59;;;;;;;2.47;1.85;;;20.20;99.90;;;;;;5001452;28;20441;-75
2022/07/13 05:11:25;;;;;;;3.75;2.15;;;20.20;99.90;;;;;;5001467;28;20133;-75
2022/07/13 05:13:52;;;;;;;3.40;2.00;;;20.20;99.90;;;;;;5017689;28;20080;-76
2022/07/13 05:16:18;;;;;;;3.47;2.25;;;20.20;99.90;;;;;;5001569;28;20523;-76
2022/07/13 05:18:44;;;;;;;3.72;2.10;;;20.20;99.90;;;;;;5001689;28;20056;-76
2022/07/13 05:21:12;;;;;;;3.92;2.20;;;20.20;99.90;;;;;;5017606;28;20081;-76
2022/07/13 05:23:38;;;;;;;3.85;2.10;;;20.20;99.90;;;;;;5017493;28;20076;-76
2022/07/13 05:26:04;;;;;;;3.13;2.05;;;20.20;99.90;;;;;;5001216;28;20053;-76
2022/07/13 05:28:30;;;;;;;3.90;2.33;;;20.20;99.90;;;;;;5001131;28;20101;-76
2022/07/13 05:30:57;;;;;;;3.50;2.70;;;20.20;99.90;;;;;;5001414;28;20484;-76
2022/07/13 05:33:23;;;;;;;3.15;2.05;;;20.20;99.90;;;;;;5017245;28;20176;-75
2022/07/13 05:35:48;;;;;;;3.42;2.10;;;20.20;99.90;;;;;;5017263;28;20088;-74
2022/07/13 05:38:15;;;;;;;2.08;1.85;;;20.30;99.90;;;;;;5001235;28;20045;-75
2022/07/13 05:40:40;;;;;;;2.67;2.00;;;20.30;99.90;;;;;;5000907;28;20037;-77
2022/07/13 05:43:06;;;;;;;2.40;1.85;;;20.30;99.90;;;;;;5017192;28;20067;-75
2022/07/13 05:45:32;;;;;;;3.78;2.20;;;20.40;99.90;;;;;;5017032;28;20037;-76
2022/07/13 05:47:58;;;;;;;4.55;2.72;;;20.40;99.90;;;;;;5017380;28;20091;-75
2022/07/13 05:50:24;;;;;;;4.00;2.20;;;20.50;99.90;;;;;;5001026;28;20037;-73
2022/07/13 05:52:50;;;;;;;4.28;2.05;;;20.50;99.90;;;;;;5000950;28;20041;-73
2022/07/13 05:55:16;;;;;;;3.90;1.98;;;20.60;99.90;;;;;;5001025;28;20045;-74
2022/07/13 05:57:44;;;;;;;2.80;2.03;;;20.60;99.90;;;;;;5000999;28;20103;-76
2022/07/13 06:00:11;;;;;;;2.80;1.92;;;20.70;99.90;;;;;;5017087;28;20555;-78
2022/07/13 06:02:41;;;;;;;3.38;1.80;;;20.70;99.90;;;;;;5000749;28;20081;-79
2022/07/13 06:05:08;;;;;;;3.22;1.98;;;20.80;99.90;;;;;;5000379;28;20045;-78
2022/07/13 06:07:34;;;;;;;3.17;2.17;;;20.90;99.90;;;;;;5016690;28;20041;-79
2022/07/13 06:10:01;;;;;;;4.78;2.17;;;20.90;99.90;;;;;;5000717;28;20132;-78
2022/07/13 06:12:27;;;;;;;3.90;1.95;;;21.00;99.90;;;;;;5000713;28;20050;-76
2022/07/13 06:14:53;;;;;;;2.33;1.77;;;21.10;99.90;;;;;;5000041;28;20072;-76
2022/07/13 06:17:20;;;;;;;3.97;2.15;;;21.10;99.90;;;;;;5016128;28;20042;-73
2022/07/13 06:19:45;;;;;;;3.20;1.88;;;21.20;99.90;;;;;;5000226;28;20041;-74
2022/07/13 06:22:11;;;;;;;3.15;2.00;;;21.30;99.90;;;;;;5000087;28;20041;-76
2022/07/13 06:24:37;;;;;;;3.15;1.67;;;21.40;99.90;;;;;;5000094;28;20408;-82
2022/07/13 06:27:03;;;;;;;2.83;1.90;;;21.50;99.90;;;;;;5016333;28;20042;-84
2022/07/13 06:29:28;;;;;;;4.57;2.17;;;21.60;99.90;;;;;;5016266;28;20489;-75
2022/07/13 06:31:54;;;;;;;3.38;1.98;;;21.60;99.90;;;;;;5016175;28;20045;-75
2022/07/13 06:34:20;;;;;;;3.22;2.10;;;21.70;99.90;;;;;;4999820;28;20455;-75
2022/07/13 06:36:45;;;;;;;3.13;1.98;;;21.70;99.90;;;;;;5016370;28;20378;-75
2022/07/13 06:39:11;;;;;;;3.20;1.98;;;21.70;99.90;;;;;;5016308;28;20045;-75
2022/07/13 06:41:37;;;;;;;3.22;1.80;;;21.90;99.90;;;;;;5016373;28;20053;-75
2022/07/13 06:44:03;;;;;;;4.28;1.92;;;22.10;99.90;;;;;;4983484;28;20037;-74
2022/07/13 06:46:29;;;;;;;3.42;2.17;;;22.20;99.90;;;;;;5016231;28;20481;-75
2022/07/13 06:48:54;;;;;;;3.45;2.25;;;22.10;99.90;;;;;;5016114;28;20136;-75
2022/07/13 06:51:20;;;;;;;4.10;2.00;;;22.30;99.90;;;;;;4999663;28;20053;-74
2022/07/13 06:53:46;;;;;;;3.55;2.20;;;22.40;99.90;;;;;;5015929;28;20086;-74
2022/07/13 06:56:11;;;;;;;2.85;2.10;;;22.60;99.90;;;;;;4999955;28;20045;-75
2022/07/13 06:58:37;;;;;;;3.45;2.17;;;22.40;99.90;;;;;;5015867;28;20075;-74
2022/07/13 07:01:04;;;;;;;3.67;2.00;;;22.70;99.90;;;;;;5000432;28;20052;-75
2022/07/13 07:03:30;;;;;;;3.40;2.25;;;22.70;99.90;;;;;;4999212;28;20042;-75
2022/07/13 07:05:56;;;;;;;3.83;2.42;;;22.70;99.90;;;;;;4999489;28;20362;-74
2022/07/13 07:08:22;;;;;;;2.88;1.83;;;22.70;99.90;;;;;;5015650;28;20116;-74
2022/07/13 07:10:48;;;;;;;3.85;2.65;;;22.90;99.90;;;;;;5015845;28;20489;-74
2022/07/13 07:13:14;;;;;;;3.42;2.00;;;22.80;99.90;;;;;;5015337;28;20049;-73
2022/07/13 07:15:40;;;;;;;5.88;2.75;;;22.80;99.90;;;;;;5015440;28;20049;-74
2022/07/13 07:18:06;;;;;;;3.75;2.30;;;22.80;99.90;;;;;;4999002;28;20420;-73
2022/07/13 07:20:33;;;;;;;6.85;2.28;;;22.80;99.90;;;;;;5015447;28;20056;-73
2022/07/13 07:23:00;;;;;;;4.90;2.45;;;22.70;99.90;;;;;;4999005;28;20064;-73
2022/07/13 07:25:26;;;;;;;3.72;2.78;;;22.90;99.90;;;;;;5015442;28;20096;-74
2022/07/13 07:27:52;;;;;;;4.53;2.50;;;23.10;99.90;;;;;;5015334;28;20034;-74
2022/07/13 07:30:18;;;;;;;4.68;2.40;;;;;;;;;;5014455;28;20065;-71
2022/07/13 07:32:44;;;;;;;5.18;2.65;;;23.30;99.90;;;;;;5015280;28;20052;-71
2022/07/13 07:35:10;;;;;;;6.47;3.00;;;23.30;99.90;;;;;;5015242;28;20512;-73
2022/07/13 07:37:38;;;;;;;4.97;2.38;;;23.50;99.90;;;;;;5015243;28;20038;-72
2022/07/13 07:40:06;;;;;;;3.50;2.17;;;23.70;99.90;;;;;;5015120;28;20049;-72
2022/07/13 07:42:31;;;;;;;4.13;2.75;;;23.70;99.90;;;;;;5015268;28;20513;-73
2022/07/13 07:44:57;;;;;;;4.90;2.42;;;23.60;99.90;;;;;;5015073;28;20043;-74
2022/07/13 07:47:25;;;;;;;4.05;2.42;;;23.60;99.90;;;;;;5015330;28;20037;-72
2022/07/13 07:49:54;;;;;;;6.57;2.88;;;23.50;99.90;;;;;;5015184;28;20037;-73
2022/07/13 07:52:20;;;;;;;6.50;2.58;;;23.50;99.90;;;;;;5015044;28;20390;-73
2022/07/13 07:54:47;;;;;;;4.55;2.83;;;23.50;99.90;;;;;;5015035;28;20041;-72
2022/07/13 07:57:13;;;;;;;3.95;2.30;;;23.50;99.90;;;;;;5015011;28;20041;-73
2022/07/13 07:59:39;;;;;;;4.18;2.53;;;23.60;99.90;;;;;;5015002;28;20041;-75
2022/07/13 08:02:06;;;;;;;3.13;2.15;;;23.60;99.90;;;;;;4998925;28;20475;-74
2022/07/13 08:04:31;;;;;;;5.05;2.70;;;23.60;99.90;;;;;;4982979;28;20091;-75
2022/07/13 08:06:57;;;;;;;3.75;2.38;;;23.70;99.90;;;;;;4998837;28;20477;-76
2022/07/13 08:09:23;;;;;;;4.40;2.22;;;23.80;99.90;;;;;;4998845;28;20041;-78
2022/07/13 08:11:49;;;;;;;5.57;2.65;;;23.80;99.90;;;;;;4998569;28;20485;-78
2022/07/13 08:14:14;;;;;;;6.53;2.88;;;23.80;99.90;;;;;;5014707;28;20066;-78
2022/07/13 08:16:40;;;;;;;4.07;2.60;;;23.90;99.90;;;;;;5014753;28;20044;-77
2022/07/13 08:19:06;;;;;;;4.32;2.72;;;24.10;99.90;;;;;;5014792;28;20088;-77
2022/07/13 08:21:34;;;;;;;6.70;3.38;;;24.20;99.90;;;;;;4998541;28;20077;-78
2022/07/13 08:23:59;;;;;;;4.03;2.58;;;24.20;99.90;;;;;;4998387;28;20046;-74
2022/07/13 08:26:30;;;;;;;4.72;2.97;;;24.40;99.90;;;;;;5015033;28;20473;-79
2022/07/13 08:28:56;;;;;;;;;;;;;;;;;;5015068;28;20046;-81
2022/07/13 08:31:22;;;;;;;5.05;3.03;;;24.60;99.90;;;;;;4998390;28;19917;-79
2022/07/13 08:39:18;;;;;;;5.13;3.08;;;24.80;99.90;;;;;;5014502;28;20042;-77
2022/07/13 08:41:45;;;;;;;5.78;2.78;;;24.80;99.90;;;;;;5017609;28;20420;-78
2022/07/13 08:44:11;;;;;;;5.45;2.70;;;24.90;99.90;;;;;;5001898;28;20084;-78
2022/07/13 08:46:38;;;;;;;5.70;2.92;;;24.90;99.90;;;;;;5018230;28;20441;-82
2022/07/13 08:49:04;;;;;;;3.30;2.63;;;25.00;99.90;;;;;;5001907;28;20409;-78
2022/07/13 08:51:32;;;;;;;4.72;2.78;;;25.10;99.90;;;;;;5001861;28;20033;-77
2022/07/13 08:53:59;;;;;;;6.05;3.08;;;25.20;99.90;;;;;;5018063;28;20053;-78
2022/07/13 08:56:25;;;;;;;5.00;2.67;;;25.20;99.90;;;;;;5018084;28;20045;-77
2022/07/13 08:58:52;;;;;;;4.78;2.80;;;25.40;99.90;;;;;;5001766;28;20493;-78
2022/07/13 09:01:19;;;;;;;3.75;2.70;;;25.50;99.90;;;;;;5018179;28;20041;-78
2022/07/13 09:03:46;;;;;;;3.50;2.47;;;25.30;99.90;;;;;;5017790;28;20037;-78
2022/07/13 09:06:48;;;;;;;5.78;2.97;;;25.30;99.90;;;;;;5017886;28;20033;-78
2022/07/13 09:09:26;;;;;;;5.15;2.90;;;25.00;99.90;;;;;;4923543;29;20035;-78
2022/07/13 09:11:52;;;;;;;6.05;3.10;;;25.30;99.90;;;;;;5009167;28;20037;-77
2022/07/13 09:14:24;;;;;;;4.60;3.17;;;25.40;99.90;;;;;;5014348;28;20409;-78
2022/07/13 09:16:54;;;;;;;4.45;2.53;;;;;;;;;;5014420;28;20053;-78
2022/07/13 09:19:25;;;;;;;5.03;3.00;;;25.40;99.90;;;;;;5014648;28;20543;-77
2022/07/13 09:21:51;;;;;;;3.85;2.50;;;25.50;99.90;;;;;;4998041;28;20048;-80
2022/07/13 09:24:17;;;;;;;2.97;2.22;;;25.50;99.90;;;;;;4997765;28;20042;-78
2022/07/13 09:26:44;;;;;;;4.38;2.40;;;25.60;99.90;;;;;;4997929;28;20048;-78
2022/07/13 09:29:14;;;;;;;2.55;1.67;;;25.60;99.90;;;;;;5014242;28;20042;-79
2022/07/13 09:31:53;;;;;;;3.55;2.00;;;25.70;99.90;;;;;;5014397;28;20030;-79
2022/07/13 09:34:20;;;;;;;2.70;2.05;;;25.70;99.90;;;;;;4997740;28;20078;-78
2022/07/13 09:36:45;;;;;;;2.33;1.65;;;25.70;99.90;;;;;;5014023;28;20064;-78
2022/07/13 09:39:11;;;;;;;4.30;1.75;;;25.80;99.90;;;;;;5013974;28;20045;-78
2022/07/13 09:41:37;;;;;;;3.13;2.05;;;25.80;99.90;;;;;;5014287;28;20046;-78
2022/07/13 09:47:06;;;;;;;4.00;2.05;;;25.80;99.90;;;;;;5014111;28;20494;-78
2022/07/13 09:49:37;;;;;;;2.40;1.60;;;25.90;99.90;;;;;;5013797;28;20129;-78
2022/07/13 09:52:05;;;;;;;3.30;1.70;;;26.00;99.90;;;;;;4996699;28;20045;-78
2022/07/13 09:54:32;;;;;;;3.20;1.83;;;26.10;99.90;;;;;;5013741;28;20108;-81
2022/07/13 09:57:01;;;;;;;2.20;1.27;;;26.30;99.90;;;;;;5013639;28;20042;-82
2022/07/13 09:59:31;;;;;;;1.20;1.00;;;26.40;99.90;;;;;;5013952;28;20034;-80
2022/07/13 10:01:57;;;;;;;1.88;1.38;;;26.40;99.90;;;;;;5013470;28;20037;-80
2022/07/13 10:04:23;;;;;;;1.33;1.00;;;26.40;99.90;;;;;;5013737;28;20052;-80
2022/07/13 10:06:50;;;;;;;1.00;0.90;;;26.50;99.90;;;;;;4997461;28;20042;-80
2022/07/13 10:09:22;;;;;;;1.42;0.98;;;26.50;99.90;;;;;;5013640;28;20087;-80
2022/07/13 10:11:48;;;;;;;1.73;0.98;;;26.40;99.90;;;;;;4997544;28;20390;-80
2022/07/13 10:14:16;;;;;;;2.42;1.35;;;26.50;99.90;;;;;;5013150;28;20093;-83
2022/07/13 10:16:42;;;;;;;1.73;0.93;;;26.60;99.90;;;;;;4996958;28;20060;-81
2022/07/13 10:19:10;;;;;;;1.52;1.10;;;26.60;99.90;;;;;;5013218;28;20111;-80
2022/07/13 10:22:03;;;;;;;1.38;1.05;;;26.50;99.90;;;;;;5013207;28;20041;-80
2022/07/13 10:24:28;;;;;;;1.17;1.00;;;26.60;99.90;;;;;;5015868;28;20046;-80
2022/07/13 10:27:21;;;;;;;1.13;1.00;;;26.60;99.90;;;;;;4996791;28;20051;-79
2022/07/13 10:29:49;;;;;;;3.15;1.20;;;26.60;99.90;;;;;;5012962;28;20038;-78
2022/07/13 10:32:26;;;;;;;1.30;0.98;;;26.60;99.90;;;;;;5013154;28;20489;-77
2022/07/13 10:34:57;;;;;;;2.47;1.33;;;26.60;99.90;;;;;;5012927;28;20050;-77
2022/07/13 10:37:24;;;;;;;1.17;0.93;;;26.50;99.90;;;;;;5012816;28;20046;-77
2022/07/13 10:40:20;;;;;;;1.75;1.20;;;26.40;99.90;;;;;;4996634;28;20034;-77
2022/07/13 10:42:58;;;;;;;1.48;0.95;;;26.40;99.90;;;;;;4988260;28;20054;-77
2022/07/13 10:45:40;;;;;;;1.65;1.05;;;26.40;99.90;;;;;;5012890;28;20050;-77
2022/07/13 10:48:21;;;;;;;1.90;1.20;;;26.40;99.90;;;;;;5012657;28;20053;-77
2022/07/13 10:50:54;;;;;;;1.15;0.85;;;26.50;99.90;;;;;;5012626;28;20073;-77
2022/07/13 10:53:42;;;;;;;1.38;1.27;;;26.50;99.90;;;;;;5012753;28;20441;-77
2022/07/13 10:56:21;;;;;;;2.78;1.17;;;26.50;99.90;;;;;;4996039;28;20096;-77
2022/07/13 10:58:49;;;;;;;11.02;1.75;;;26.50;99.90;;;;;;5012582;28;20050;-77
2022/07/13 11:01:43;;;;;;;1.45;1.10;;;26.60;99.90;;;;;;5012426;28;20049;-77
2022/07/13 11:04:12;;;;;;;1.63;1.20;;;26.70;99.90;;;;;;5012259;28;20078;-84
2022/07/13 11:06:39;;;;;;;1.58;1.13;;;26.70;99.90;;;;;;4996409;28;20087;-76
2022/07/13 11:09:20;;;;;;;1.55;1.25;;;26.70;99.90;;;;;;5012871;28;20081;-77
2022/07/13 11:11:53;;;;;;;1.40;1.00;;;26.70;99.90;;;;;;5012450;28;20060;-77
2022/07/13 11:14:40;;;;;;;1.73;1.33;;;26.60;99.90;;;;;;5012149;28;20116;-76
2022/07/13 11:17:13;;;;;;;1.58;0.98;;;26.50;99.90;;;;;;4995986;28;20099;-82
2022/07/13 11:20:09;;;;;;;1.63;1.00;;;26.60;99.90;;;;;;4995992;28;20077;-79
2022/07/13 11:25:38;;;;;;;1.25;1.10;;;26.70;99.90;;;;;;5012098;28;20049;-76
2022/07/13 11:28:26;;;;;;;3.70;1.52;;;26.80;99.90;;;;;;5012339;28;20057;-75
2022/07/13 11:30:54;;;;;;;1.75;0.80;;;26.90;99.90;;;;;;5012403;28;20064;-76
2022/07/13 11:33:20;;;;;;;1.88;1.13;;;26.80;99.90;;;;;;5011946;28;20076;-76
2022/07/13 11:35:47;;;;;;;3.15;1.10;;;27.00;99.90;;;;;;5012225;28;20087;-76
2022/07/13 11:38:19;;;;;;;1.80;1.38;;;27.00;99.90;;;;;;5012308;28;20117;-76
2022/07/13 11:40:45;;;;;;;2.90;1.02;;;27.10;99.90;;;;;;5012227;28;20413;-77
2022/07/13 11:43:11;;;;;;;1.20;0.95;;;27.10;99.90;;;;;;4995590;28;20042;-76
2022/07/13 11:45:40;;;;;;;1.60;1.10;;;27.00;99.90;;;;;;4995571;28;20046;-76
2022/07/13 11:48:12;;;;;;;2.33;1.50;;;26.90;99.90;;;;;;5011792;28;20045;-75
2022/07/13 11:50:46;;;;;;;2.10;1.23;;;26.90;99.90;;;;;;5011827;28;20059;-77
2022/07/13 11:53:22;;;;;;;1.98;1.30;;;27.00;99.90;;;;;;5011807;28;20049;-78
2022/07/13 11:55:47;;;;;;;2.55;1.42;;;26.90;99.90;;;;;;4995435;28;20037;-77
2022/07/13 11:58:24;;;;;;;1.55;1.17;;;26.70;99.90;;;;;;4995411;28;20068;-77
2022/07/13 12:00:51;;;;;;;1.33;1.08;;;26.70;99.90;;;;;;4995342;28;20037;-76
2022/07/13 12:03:25;;;;;;;3.75;1.05;;;26.50;99.90;;;;;;5011794;28;20053;-76
2022/07/13 12:05:51;;;;;;;0.88;0.80;;;26.40;99.90;;;;;;5012185;28;20045;-77
2022/07/13 12:08:17;;;;;;;0.77;0.77;;;26.30;99.90;;;;;;5011863;28;20401;-77
2022/07/13 12:10:43;;;;;;;1.15;0.90;;;26.40;99.90;;;;;;4995335;28;20052;-79
2022/07/13 12:13:09;;;;;;;2.03;1.20;;;26.40;99.90;;;;;;5013093;28;20108;-81
2022/07/13 12:15:35;;;;;;;1.08;0.93;;;26.60;99.90;;;;;;5000085;28;20489;-82
2022/07/13 12:18:04;;;;;;;1.23;0.80;;;26.70;99.90;;;;;;5019061;28;20548;-81
2022/07/13 12:20:32;;;;;;;1.40;0.90;;;26.60;99.90;;;;;;5018779;28;20056;-80
2022/07/13 12:22:59;;;;;;;1.50;0.90;;;26.70;99.90;;;;;;5018593;28;20041;-79
2022/07/13 12:25:31;;;;;;;2.20;0.90;;;26.70;99.90;;;;;;5018618;28;20045;-80
2022/07/13 12:28:01;;;;;;;1.35;0.88;;;26.80;99.90;;;;;;5018908;28;20037;-79
2022/07/13 12:30:28;;;;;;;4.22;0.90;;;26.60;99.90;;;;;;5018785;28;20489;-79
2022/07/13 12:32:59;;;;;;;0.93;0.82;;;26.50;99.90;;;;;;5018565;28;20421;-81
2022/07/13 12:35:36;;;;;;;1.00;0.88;;;26.60;99.90;;;;;;5018454;28;20045;-79
2022/07/13 12:38:10;;;;;;;1.02;0.90;;;26.60;99.90;;;;;;5018355;28;20071;-79
2022/07/13 12:40:51;;;;;;;2.83;1.25;;;26.60;99.90;;;;;;5002412;28;20124;-81
2022/07/13 12:43:21;;;;;;;1.63;1.00;;;26.50;99.90;;;;;;5018090;28;20053;-77
2022/07/13 12:45:50;;;;;;;1.25;1.02;;;26.40;99.90;;;;;;5018409;28;20081;-80
2022/07/13 12:48:24;;;;;;;1.13;1.00;;;26.30;99.90;;;;;;5018157;28;20076;-80
2022/07/13 12:51:00;;;;;;;0.98;0.70;;;26.30;99.90;;;;;;5018449;28;20583;-79
2022/07/13 12:53:52;;;;;;;3.60;1.00;;;26.30;99.90;;;;;;5018024;28;20052;-79
2022/07/13 12:56:23;;;;;;;2.15;1.05;;;26.40;99.90;;;;;;5001661;28;20068;-79
2022/07/13 12:58:53;;;;;;;1.75;1.30;;;26.30;99.90;;;;;;5018234;28;20033;-79
2022/07/13 13:01:29;;;;;;;1.55;0.80;;;26.30;99.90;;;;;;5001552;28;20128;-79
2022/07/13 13:03:55;;;;;;;1.67;1.13;;;26.40;99.90;;;;;;5001623;28;20455;-80